createdAt,value
2023-02-12T00:02:59.869Z,9.85
2023-02-12T00:06:02.657Z,9.73
2023-02-12T00:09:04.717Z,10.52
2023-02-12T00:12:06.573Z,11.18
2023-02-12T00:15:08.736Z,11.43
2023-02-12T00:18:10.504Z,10.45
2023-02-12T00:21:14.186Z,11.88
2023-02-12T00:24:15.871Z,10.63
2023-02-12T00:27:17.358Z,11.52
2023-02-12T00:30:19.407Z,10.98
2023-02-12T00:33:21.473Z,11.57
2023-02-12T00:36:26.061Z,15.52
2023-02-12T00:39:27.711Z,11.95
2023-02-12T00:42:30.195Z,9.90
2023-02-12T00:45:32.083Z,11.35
2023-02-12T00:48:35.389Z,12.18
2023-02-12T00:51:37.717Z,12.25
2023-02-12T00:54:39.533Z,11.95
2023-02-12T00:57:41.600Z,11.23
2023-02-12T01:00:43.779Z,11.63
2023-02-12T01:03:45.941Z,11.30
2023-02-12T01:06:47.801Z,10.73
2023-02-12T01:09:50.414Z,11.27
2023-02-12T01:12:52.151Z,11.15
2023-02-12T01:16:12.795Z,10.55
2023-02-12T01:19:14.348Z,9.50
2023-02-12T01:22:16.512Z,11.15
2023-02-12T01:25:20.545Z,11.40
2023-02-12T01:28:22.340Z,10.57
2023-02-12T01:31:27.763Z,11.02
2023-02-12T01:34:29.358Z,10.10
2023-02-12T01:37:31.127Z,10.70
2023-02-12T01:40:32.768Z,10.25
2023-02-12T01:43:38.674Z,11.13
2023-02-12T01:46:41.352Z,11.32
2023-02-12T01:49:47.157Z,12.23
2023-02-12T01:52:54.487Z,11.10
2023-02-12T01:55:59.365Z,10.63
2023-02-12T01:59:02.189Z,10.88
2023-02-12T02:02:06.582Z,11.82
2023-02-12T02:05:08.848Z,11.30
2023-02-12T02:08:12.006Z,11.40
2023-02-12T02:11:32.117Z,10.83
2023-02-12T02:14:36.213Z,12.70
2023-02-12T02:17:51.357Z,11.80
2023-02-12T02:21:41.098Z,10.63
2023-02-12T02:25:04.079Z,12.13
2023-02-12T02:28:36.960Z,12.15
2023-02-12T02:31:44.927Z,11.45
2023-02-12T02:35:05.032Z,11.38
2023-02-12T02:38:29.999Z,11.00
2023-02-12T02:41:50.555Z,11.65
2023-02-12T02:45:03.455Z,10.95
2023-02-12T02:48:08.656Z,10.82
2023-02-12T02:51:21.331Z,11.02
2023-02-12T02:54:40.532Z,12.15
2023-02-12T02:57:48.695Z,10.77
2023-02-12T03:01:05.924Z,11.00
2023-02-12T03:04:13.197Z,11.32
2023-02-12T03:07:22.068Z,11.07
2023-02-12T03:10:29.724Z,10.25
2023-02-12T03:13:40.824Z,11.43
2023-02-12T03:16:59.918Z,10.32
2023-02-12T03:20:19.631Z,11.02
2023-02-12T03:23:38.073Z,11.43
2023-02-12T03:26:48.846Z,11.57
2023-02-12T03:29:50.841Z,11.00
2023-02-12T03:33:21.439Z,11.38
2023-02-12T03:36:28.969Z,11.07
2023-02-12T03:39:54.979Z,11.82
2023-02-12T03:43:12.377Z,12.52
2023-02-12T03:46:32.296Z,11.00
2023-02-12T03:49:45.708Z,11.32
2023-02-12T03:52:50.294Z,12.47
2023-02-12T03:55:57.864Z,11.48
2023-02-12T03:59:00.255Z,11.77
2023-02-12T04:02:02.313Z,10.98
2023-02-12T04:05:07.712Z,11.63
2023-02-12T04:08:12.656Z,11.57
2023-02-12T04:11:21.387Z,11.15
2023-02-12T04:14:38.078Z,11.32
2023-02-12T04:18:07.313Z,11.27
2023-02-12T04:21:46.277Z,11.50
2023-02-12T04:25:05.161Z,11.75
2023-02-12T04:28:25.378Z,11.07
2023-02-12T04:31:38.826Z,12.57
2023-02-12T04:34:59.105Z,11.97
2023-02-12T04:38:21.678Z,11.98
2023-02-12T04:41:25.069Z,11.82
2023-02-12T04:44:29.361Z,11.20
2023-02-12T04:47:31.447Z,11.23
2023-02-12T04:50:43.459Z,10.63
2023-02-12T04:53:45.074Z,11.30
2023-02-12T04:56:47.385Z,12.85
2023-02-12T04:59:49.459Z,11.98
2023-02-12T05:02:50.929Z,11.82
2023-02-12T05:05:52.540Z,13.20
2023-02-12T05:08:54.183Z,11.90
2023-02-12T05:11:55.836Z,12.05
2023-02-12T05:14:58.330Z,12.35
2023-02-12T05:18:00.188Z,11.60
2023-02-12T05:21:03.934Z,11.73
2023-02-12T05:24:05.819Z,11.98
2023-02-12T05:27:09.340Z,11.20
2023-02-12T05:30:11.272Z,11.63
2023-02-12T05:33:12.838Z,11.48
2023-02-12T05:36:17.635Z,11.45
2023-02-12T05:39:19.283Z,13.75
2023-02-12T05:42:20.717Z,13.25
2023-02-12T05:45:28.132Z,11.90
2023-02-12T05:48:30.745Z,11.77
2023-02-12T05:51:33.227Z,12.00
2023-02-12T05:54:34.726Z,12.18
2023-02-12T05:57:36.700Z,11.23
2023-02-12T06:00:38.384Z,11.23
2023-02-12T06:03:40.271Z,10.88
2023-02-12T06:06:44.590Z,11.02
2023-02-12T06:09:46.576Z,10.95
2023-02-12T06:12:48.057Z,10.75
2023-02-12T06:15:50.034Z,10.38
2023-02-12T06:18:52.940Z,10.18
2023-02-12T06:21:54.589Z,11.23
2023-02-12T06:24:56.608Z,9.77
2023-02-12T06:27:58.509Z,11.38
2023-02-12T06:31:00.817Z,9.45
2023-02-12T06:34:06.203Z,9.95
2023-02-12T06:37:08.036Z,10.20
2023-02-12T06:40:09.914Z,10.55
2023-02-12T06:43:11.938Z,9.98
2023-02-12T06:46:14.513Z,10.13
2023-02-12T06:49:17.159Z,11.32
2023-02-12T06:52:18.785Z,10.27
2023-02-12T06:55:20.397Z,10.15
2023-02-12T06:58:21.953Z,10.43
2023-02-12T07:01:28.950Z,10.68
2023-02-12T07:04:30.857Z,10.00
2023-02-12T07:07:32.500Z,11.20
2023-02-12T07:10:33.972Z,10.27
2023-02-12T07:13:35.874Z,11.88
2023-02-12T07:16:37.396Z,11.63
2023-02-12T07:19:38.942Z,11.18
2023-02-12T07:22:40.758Z,11.77
2023-02-12T07:25:42.386Z,11.55
2023-02-12T07:28:44.287Z,11.68
2023-02-12T07:31:46.159Z,10.95
2023-02-12T07:34:47.681Z,11.85
2023-02-12T07:37:49.168Z,11.70
2023-02-12T07:40:50.826Z,12.23
2023-02-12T07:44:03.524Z,11.55
2023-02-12T07:47:06.095Z,11.40
2023-02-12T07:50:08.609Z,10.93
2023-02-12T07:53:10.093Z,16.05
2023-02-12T07:56:14.790Z,17.98
2023-02-12T07:59:18.394Z,23.83
2023-02-12T08:02:19.965Z,15.98
2023-02-12T08:05:21.473Z,16.70
2023-02-12T08:08:22.915Z,14.52
2023-02-12T08:11:26.134Z,13.80
2023-02-12T08:14:28.151Z,9.33
2023-02-12T08:17:29.729Z,11.40
2023-02-12T08:20:34.233Z,10.20
2023-02-12T08:23:36.385Z,8.43
2023-02-12T08:26:39.519Z,9.23
2023-02-12T08:29:41.029Z,8.85
2023-02-12T08:32:42.509Z,12.10
2023-02-12T08:35:44.029Z,13.25
2023-02-12T08:38:46.844Z,13.50
2023-02-12T08:41:49.002Z,12.95
2023-02-12T08:44:50.504Z,11.98
2023-02-12T08:47:52.018Z,8.23
2023-02-12T08:50:53.468Z,7.72
2023-02-12T08:53:57.369Z,8.02
2023-02-12T08:57:01.584Z,10.40
2023-02-12T09:00:04.052Z,11.45
2023-02-12T09:03:05.537Z,11.50
2023-02-12T09:06:07.820Z,11.20
2023-02-12T09:09:09.507Z,13.18
2023-02-12T09:12:11.012Z,13.38
2023-02-12T09:15:12.540Z,11.80
2023-02-12T09:18:15.265Z,13.27
2023-02-12T09:21:16.868Z,12.30
2023-02-12T09:24:18.471Z,13.05
2023-02-12T09:27:19.925Z,13.20
2023-02-12T09:30:21.673Z,12.05
2023-02-12T09:33:23.147Z,10.75
2023-02-12T09:36:24.795Z,11.45
2023-02-12T09:39:30.420Z,9.35
2023-02-12T09:42:51.972Z,10.88
2023-02-12T09:46:02.719Z,8.00
2023-02-12T09:49:45.362Z,9.90
2023-02-12T09:52:47.033Z,11.73
2023-02-12T09:55:48.524Z,11.80
2023-02-12T09:58:53.980Z,11.00
2023-02-12T10:01:55.528Z,11.52
2023-02-12T10:05:02.014Z,11.98
2023-02-12T10:08:47.493Z,9.50
2023-02-12T10:12:24.167Z,9.10
2023-02-12T10:15:37.878Z,10.55
2023-02-12T10:19:10.479Z,11.65
2023-02-12T10:22:22.626Z,14.23
2023-02-12T10:25:29.215Z,18.17
2023-02-12T10:28:39.187Z,15.48
2023-02-12T10:31:44.223Z,17.92
2023-02-12T10:34:49.670Z,19.58
2023-02-12T10:37:58.312Z,20.90
2023-02-12T10:41:01.977Z,21.23
2023-02-12T10:44:03.588Z,22.63
2023-02-12T10:47:05.526Z,24.10
2023-02-12T10:50:20.011Z,24.02
2023-02-12T10:56:27.865Z,23.75
2023-02-12T10:59:29.447Z,24.13
2023-02-12T11:02:33.543Z,24.52
2023-02-12T11:05:36.903Z,21.92
2023-02-12T11:08:39.468Z,24.05
2023-02-12T11:11:41.053Z,25.27
2023-02-12T11:14:55.928Z,24.75
2023-02-12T11:18:05.122Z,22.33
2023-02-12T11:21:12.509Z,23.83
2023-02-12T11:24:26.395Z,21.85
2023-02-12T11:27:30.782Z,20.83
2023-02-12T11:30:33.397Z,22.10
2023-02-12T11:33:37.189Z,22.48
2023-02-12T11:36:43.937Z,20.70
2023-02-12T11:39:51.042Z,22.00
2023-02-12T11:42:56.050Z,22.55
2023-02-12T11:45:59.389Z,20.70
2023-02-12T11:49:02.100Z,22.70
2023-02-12T11:52:04.825Z,21.35
2023-02-12T11:55:22.968Z,21.70
2023-02-12T11:58:26.384Z,22.00
2023-02-12T12:01:33.378Z,20.52
2023-02-12T12:04:37.076Z,21.05
2023-02-12T12:07:43.730Z,19.23
2023-02-12T12:10:53.970Z,20.98
2023-02-12T12:14:09.141Z,22.35
2023-02-12T12:17:33.754Z,21.30
2023-02-12T12:20:55.385Z,20.17
2023-02-12T12:24:05.313Z,19.98
2023-02-12T12:27:45.410Z,21.45
2023-02-12T12:30:50.586Z,20.02
2023-02-12T12:34:01.181Z,19.90
2023-02-12T12:37:21.501Z,21.40
2023-02-12T12:40:51.328Z,20.02
2023-02-12T12:44:19.238Z,19.83
2023-02-12T12:47:34.780Z,19.27
2023-02-12T12:51:12.067Z,19.52
2023-02-12T12:54:39.308Z,18.70
2023-02-12T12:58:10.506Z,18.52
2023-02-12T13:01:40.102Z,18.90
2023-02-12T13:04:56.159Z,17.02
2023-02-12T13:08:11.776Z,17.63
2023-02-12T13:11:22.280Z,18.00
2023-02-12T13:14:46.846Z,17.70
2023-02-12T13:18:00.134Z,17.20
2023-02-12T13:21:14.762Z,17.30
2023-02-12T13:24:29.262Z,17.90
2023-02-12T13:27:43.012Z,17.65
2023-02-12T13:30:52.144Z,16.45
2023-02-12T13:33:58.308Z,17.33
2023-02-12T13:37:06.564Z,15.57
2023-02-12T13:40:24.348Z,15.02
2023-02-12T13:43:44.083Z,13.90
2023-02-12T13:47:05.815Z,13.35
2023-02-12T13:50:20.058Z,14.07
2023-02-12T13:53:58.763Z,13.57
2023-02-12T13:57:13.592Z,13.48
2023-02-12T14:01:08.571Z,14.55
2023-02-12T14:04:24.793Z,13.50
2023-02-12T14:07:45.677Z,12.40
2023-02-12T14:11:05.197Z,12.70
2023-02-12T14:14:06.797Z,14.10
2023-02-12T14:17:31.419Z,12.70
2023-02-12T14:23:39.224Z,12.60
2023-02-12T14:26:41.030Z,12.73
2023-02-12T14:30:20.212Z,13.30
2023-02-12T14:33:25.655Z,12.77
2023-02-12T14:36:33.052Z,14.02
2023-02-12T14:39:34.595Z,14.20
2023-02-12T14:42:36.994Z,14.38
2023-02-12T14:45:38.547Z,13.75
2023-02-12T14:48:56.182Z,13.63
2023-02-12T14:52:07.309Z,13.80
2023-02-12T14:55:22.320Z,14.43
2023-02-12T14:58:25.711Z,14.30
2023-02-12T15:01:32.991Z,14.77
2023-02-12T15:04:38.213Z,14.75
2023-02-12T15:07:52.795Z,16.00
2023-02-12T15:11:17.908Z,15.23
2023-02-12T15:14:24.262Z,15.55
2023-02-12T15:17:29.833Z,14.65
2023-02-12T15:20:38.236Z,16.10
2023-02-12T15:23:43.107Z,16.42
2023-02-12T15:26:50.369Z,15.38
2023-02-12T15:29:53.870Z,15.18
2023-02-12T15:32:57.966Z,16.27
2023-02-12T15:36:02.009Z,16.20
2023-02-12T15:39:08.253Z,15.50
2023-02-12T15:42:29.829Z,15.48
2023-02-12T15:45:33.791Z,14.93
2023-02-12T15:48:37.220Z,14.93
2023-02-12T15:51:41.660Z,14.25
2023-02-12T15:54:45.263Z,15.40
2023-02-12T15:57:53.310Z,15.18
2023-02-12T16:01:00.368Z,15.13
2023-02-12T16:04:05.294Z,15.13
2023-02-12T16:07:08.004Z,15.02
2023-02-12T16:10:14.266Z,14.95
2023-02-12T16:13:25.779Z,15.40
2023-02-12T16:16:30.184Z,15.32
2023-02-12T16:19:40.194Z,17.10
2023-02-12T16:22:44.243Z,15.90
2023-02-12T16:25:55.069Z,17.05
2023-02-12T16:28:58.168Z,16.65
2023-02-12T16:32:03.477Z,16.20
2023-02-12T16:35:11.166Z,16.05
2023-02-12T16:38:44.864Z,15.90
2023-02-12T16:41:56.998Z,15.73
2023-02-12T16:44:58.591Z,16.67
2023-02-12T16:48:06.742Z,17.98
2023-02-12T16:51:24.943Z,17.00
2023-02-12T16:54:34.866Z,17.83
2023-02-12T16:57:36.351Z,17.02
2023-02-12T17:00:38.956Z,18.17
2023-02-12T17:03:40.675Z,17.35
2023-02-12T17:06:43.556Z,17.25
2023-02-12T17:09:45.170Z,18.27
2023-02-12T17:12:51.806Z,17.00
2023-02-12T17:15:58.866Z,16.55
2023-02-12T17:19:00.880Z,16.90
2023-02-12T17:22:04.072Z,16.77
2023-02-12T17:25:05.804Z,16.25
2023-02-12T17:28:08.774Z,17.38
2023-02-12T17:31:10.800Z,16.55
2023-02-12T17:34:12.248Z,16.63
2023-02-12T17:37:13.744Z,16.83
2023-02-12T17:40:15.231Z,16.83
2023-02-12T17:43:17.024Z,17.75
2023-02-12T17:46:21.620Z,18.70
2023-02-12T17:49:23.124Z,17.83
2023-02-12T17:52:24.587Z,18.67
2023-02-12T17:55:26.075Z,19.00
2023-02-12T17:58:27.677Z,18.45
2023-02-12T18:01:29.266Z,17.55
2023-02-12T18:04:35.716Z,18.55
2023-02-12T18:07:37.519Z,16.88
2023-02-12T18:10:43.197Z,17.38
2023-02-12T18:13:45.123Z,17.85
2023-02-12T18:16:47.000Z,16.92
2023-02-12T18:19:49.343Z,17.05
2023-02-12T18:22:50.854Z,16.27
2023-02-12T18:25:52.345Z,17.00
2023-02-12T18:28:54.124Z,16.80
2023-02-12T18:31:55.680Z,15.90
2023-02-12T18:34:57.238Z,111.65
2023-02-12T18:37:58.969Z,54.33
2023-02-12T18:41:05.073Z,25.83
2023-02-12T18:44:06.609Z,20.70
2023-02-12T18:47:08.248Z,26.77
2023-02-12T18:50:10.158Z,26.50
2023-02-12T18:53:11.642Z,21.77
2023-02-12T18:56:13.317Z,19.58
2023-02-12T18:59:15.651Z,17.92
2023-02-12T19:02:17.306Z,20.50
2023-02-12T19:05:18.752Z,26.13
2023-02-12T19:08:20.208Z,23.50
2023-02-12T19:11:21.800Z,23.67
2023-02-12T19:14:25.457Z,23.48
2023-02-12T19:17:27.008Z,30.70
2023-02-12T19:20:28.559Z,28.63
2023-02-12T19:23:30.048Z,33.08
2023-02-12T19:26:34.212Z,23.20
2023-02-12T19:32:38.080Z,29.85
2023-02-12T19:35:39.537Z,25.15
2023-02-12T19:38:41.275Z,16.02
2023-02-12T19:41:43.291Z,16.85
2023-02-12T19:44:46.671Z,18.00
2023-02-12T19:47:50.668Z,15.85
2023-02-12T19:50:52.194Z,21.95
2023-02-12T19:53:54.180Z,22.85
2023-02-12T19:56:55.760Z,20.52
2023-02-12T19:59:57.292Z,23.10
2023-02-12T20:02:58.750Z,20.55
2023-02-12T20:06:02.179Z,18.05
2023-02-12T20:09:04.663Z,25.33
2023-02-12T20:12:06.426Z,22.88
2023-02-12T20:15:08.344Z,17.52
2023-02-12T20:18:10.770Z,21.40
2023-02-12T20:21:16.051Z,17.27
2023-02-12T20:24:17.616Z,16.80
2023-02-12T20:27:19.123Z,13.65
2023-02-12T20:30:20.834Z,14.07
2023-02-12T20:33:22.360Z,12.82
2023-02-12T20:36:25.163Z,14.18
2023-02-12T20:39:26.708Z,13.40
2023-02-12T20:42:28.185Z,11.77
2023-02-12T20:45:29.713Z,11.40
2023-02-12T20:48:31.425Z,11.18
2023-02-12T20:51:33.107Z,10.93
2023-02-12T20:54:34.694Z,11.45
2023-02-12T20:57:36.218Z,10.95
2023-02-12T21:00:37.807Z,10.80
2023-02-12T21:03:39.440Z,11.43
2023-02-12T21:06:41.628Z,9.63
2023-02-12T21:09:43.191Z,8.95
2023-02-12T21:12:44.741Z,9.10
2023-02-12T21:15:46.348Z,9.48
2023-02-12T21:18:48.668Z,8.88
2023-02-12T21:21:50.252Z,8.43
2023-02-12T21:24:51.767Z,9.70
2023-02-12T21:27:53.271Z,9.05
2023-02-12T21:30:54.719Z,8.23
2023-02-12T21:33:57.912Z,10.45
2023-02-12T21:36:59.390Z,8.90
2023-02-12T21:40:00.904Z,10.40
2023-02-12T21:43:02.442Z,11.38
2023-02-12T21:46:04.693Z,11.23
2023-02-12T21:49:07.258Z,12.85
2023-02-12T21:52:08.842Z,10.80
2023-02-12T21:55:10.364Z,7.43
2023-02-12T21:58:11.889Z,7.13
2023-02-12T22:01:25.659Z,8.23
2023-02-12T22:04:28.068Z,7.60
2023-02-12T22:07:29.570Z,7.45
2023-02-12T22:10:31.269Z,7.28
2023-02-12T22:13:33.586Z,7.72
2023-02-12T22:16:36.459Z,7.50
2023-02-12T22:19:38.123Z,7.70
2023-02-12T22:22:40.150Z,7.40
2023-02-12T22:25:41.670Z,7.80
2023-02-12T22:28:44.465Z,6.50
2023-02-12T22:31:47.597Z,8.30
2023-02-12T22:34:49.317Z,8.07
2023-02-12T22:37:50.821Z,7.53
2023-02-12T22:40:53.137Z,8.93
2023-02-12T22:43:55.161Z,7.78
2023-02-12T22:46:57.028Z,8.00
2023-02-12T22:49:59.825Z,8.55
2023-02-12T22:53:01.428Z,8.88
2023-02-12T22:56:05.115Z,12.15
2023-02-12T22:59:06.945Z,11.70
2023-02-12T23:02:09.361Z,9.93
2023-02-12T23:05:10.827Z,10.43
2023-02-12T23:08:12.393Z,11.30
2023-02-12T23:11:13.923Z,11.32
2023-02-12T23:14:15.932Z,10.30
2023-02-12T23:17:17.440Z,10.55
2023-02-12T23:20:19.058Z,10.77
2023-02-12T23:23:21.874Z,8.70
2023-02-12T23:26:23.480Z,8.88
2023-02-12T23:29:25.069Z,8.63
2023-02-12T23:32:26.538Z,9.25
2023-02-12T23:35:28.136Z,9.23
2023-02-12T23:38:29.646Z,8.32
2023-02-12T23:41:31.406Z,7.30
2023-02-12T23:44:32.933Z,7.22
2023-02-12T23:47:34.393Z,8.50
2023-02-12T23:50:35.898Z,7.75
2023-02-12T23:53:37.429Z,7.13
2023-02-12T23:56:39.347Z,6.88
2023-02-12T23:59:40.827Z,7.25
